Time,TemperatureF,DewpointF,PressureIn,WindDirection,WindDirectionDegrees,WindSpeedMPH,WindSpeedGustMPH,Humidity,HourlyPrecipIn,Conditions,Clouds,dailyrainin,SoftwareType,DateUTC
2013-02-08 00:01:00,34.0,32.0,29.89,NE,46,1.0,2.0,94,0.00,,,0.12,,2013-02-08 08:01:00,
2013-02-08 00:11:00,34.0,32.0,29.89,NE,46,1.0,2.0,94,0.00,,,0.12,,2013-02-08 08:11:00,
2013-02-08 00:21:00,34.0,33.0,29.89,SE,145,2.0,3.0,95,0.00,,,0.12,,2013-02-08 08:21:00,
2013-02-08 00:32:00,35.0,34.0,29.89,SSE,163,1.0,4.0,95,0.00,,,0.12,,2013-02-08 08:32:00,
2013-02-08 00:41:00,35.0,34.0,29.89,SSE,163,1.0,4.0,95,0.00,,,0.12,,2013-02-08 08:41:00,
2013-02-08 00:52:00,35.0,34.0,29.89,SSE,148,1.0,3.0,95,0.00,,,0.12,,2013-02-08 08:52:00,
2013-02-08 01:02:00,35.0,34.0,29.88,SSE,147,2.0,4.0,95,0.00,,,0.12,,2013-02-08 09:02:00,
2013-02-08 01:11:00,35.0,34.0,29.88,SSE,147,2.0,4.0,95,0.00,,,0.12,,2013-02-08 09:11:00,
2013-02-08 01:21:00,35.0,34.0,29.88,SSE,147,2.0,4.0,95,0.00,,,0.12,,2013-02-08 09:21:00,
2013-02-08 01:31:00,34.0,33.0,29.88,ESE,119,1.0,2.0,95,0.00,,,0.12,,2013-02-08 09:31:00,
2013-02-08 01:42:00,34.0,33.0,29.88,ESE,119,1.0,2.0,95,0.00,,,0.12,,2013-02-08 09:42:00,
2013-02-08 01:52:00,34.0,33.0,29.87,ESE,119,1.0,2.0,96,0.00,,,0.12,,2013-02-08 09:52:00,
2013-02-08 02:01:00,34.0,33.0,29.87,ESE,119,1.0,2.0,96,0.00,,,0.12,,2013-02-08 10:01:00,
2013-02-08 02:11:00,34.0,33.0,29.87,ESE,119,1.0,2.0,96,0.00,,,0.12,,2013-02-08 10:11:00,
2013-02-08 02:22:00,34.0,33.0,29.86,ESE,121,1.0,2.0,95,0.00,,,0.12,,2013-02-08 10:22:00,
2013-02-08 02:31:00,34.0,33.0,29.86,ESE,121,1.0,3.0,95,0.00,,,0.12,,2013-02-08 10:31:00,
2013-02-08 02:41:00,34.0,33.0,29.86,ESE,121,1.0,3.0,95,0.00,,,0.12,,2013-02-08 10:41:00,
2013-02-08 02:51:00,33.0,32.0,29.86,ESE,121,1.0,2.0,96,0.00,,,0.12,,2013-02-08 10:51:00,
2013-02-08 03:01:00,34.0,33.0,29.85,ESE,121,2.0,3.0,96,0.00,,,0.12,,2013-02-08 11:01:00,
2013-02-08 03:11:00,34.0,33.0,29.85,ESE,121,2.0,3.0,96,0.00,,,0.12,,2013-02-08 11:11:00,
2013-02-08 03:21:00,34.0,33.0,29.85,SE,146,1.0,2.0,96,0.00,,,0.12,,2013-02-08 11:21:00,
2013-02-08 03:32:00,34.0,33.0,29.85,SE,143,0.0,4.0,96,0.00,,,0.12,,2013-02-08 11:32:00,
2013-02-08 03:41:00,34.0,33.0,29.85,SE,143,0.0,4.0,96,0.00,,,0.12,,2013-02-08 11:41:00,
2013-02-08 03:52:00,33.0,32.0,29.85,SSE,147,1.0,4.0,95,0.00,,,0.12,,2013-02-08 11:52:00,
2013-02-08 04:01:00,33.0,32.0,29.85,ENE,60,0.0,2.0,96,0.00,,,0.12,,2013-02-08 12:01:00,
2013-02-08 04:11:00,33.0,32.0,29.85,ENE,60,0.0,2.0,96,0.00,,,0.12,,2013-02-08 12:11:00,
2013-02-08 04:22:00,33.0,32.0,29.85,ESE,115,1.0,3.0,96,0.00,,,0.12,,2013-02-08 12:22:00,
2013-02-08 04:32:00,33.0,32.0,29.85,SE,130,0.0,3.0,96,0.00,,,0.12,,2013-02-08 12:32:00,
2013-02-08 04:42:00,33.0,32.0,29.85,SE,130,0.0,3.0,96,0.00,,,0.12,,2013-02-08 12:42:00,
2013-02-08 04:52:00,33.0,32.0,29.85,ENE,59,0.0,2.0,96,0.00,,,0.12,,2013-02-08 12:52:00,
2013-02-08 05:01:00,33.0,32.0,29.86,ENE,64,1.0,2.0,96,0.00,,,0.12,,2013-02-08 13:01:00,
2013-02-08 05:11:00,33.0,32.0,29.86,ENE,64,1.0,2.0,96,0.00,,,0.12,,2013-02-08 13:11:00,
2013-02-08 05:21:00,33.0,32.0,29.85,SE,139,1.0,3.0,96,0.00,,,0.12,,2013-02-08 13:21:00,
2013-02-08 05:32:00,33.0,32.0,29.85,SSE,147,1.0,5.0,96,0.00,,,0.11,,2013-02-08 13:32:00,
2013-02-08 05:42:00,33.0,32.0,29.85,SSE,147,1.0,5.0,96,0.00,,,0.11,,2013-02-08 13:42:00,
2013-02-08 05:51:00,32.0,31.0,29.86,SE,133,3.0,4.0,96,0.00,,,0.11,,2013-02-08 13:51:00,
2013-02-08 06:01:00,33.0,32.0,29.86,ESE,109,2.0,3.0,96,0.00,,,0.11,,2013-02-08 14:01:00,
2013-02-08 06:11:00,33.0,32.0,29.86,ESE,109,2.0,3.0,96,0.00,,,0.11,,2013-02-08 14:11:00,
2013-02-08 06:21:00,32.0,31.0,29.86,ESE,122,2.0,4.0,96,0.00,,,0.11,,2013-02-08 14:21:00,
2013-02-08 06:32:00,33.0,32.0,29.87,East,94,2.0,5.0,96,0.00,,,0.09,,2013-02-08 14:32:00,
2013-02-08 06:41:00,33.0,32.0,29.87,East,94,2.0,5.0,96,0.00,,,0.09,,2013-02-08 14:41:00,
2013-02-08 06:52:00,32.0,31.0,29.88,East,100,2.0,5.0,96,0.00,,,0.09,,2013-02-08 14:52:00,
2013-02-08 07:01:00,32.0,31.0,29.88,WSW,250,2.0,4.0,96,0.00,,,0.09,,2013-02-08 15:01:00,
2013-02-08 07:11:00,32.0,31.0,29.88,WSW,250,2.0,4.0,96,0.00,,,0.09,,2013-02-08 15:11:00,
2013-02-08 07:21:00,33.0,32.0,29.88,SE,144,2.0,4.0,97,0.00,,,0.09,,2013-02-08 15:21:00,
2013-02-08 07:32:00,33.0,32.0,29.88,SSE,148,2.0,3.0,97,0.00,,,0.07,,2013-02-08 15:32:00,
2013-02-08 07:41:00,33.0,32.0,29.88,SSE,148,2.0,3.0,97,0.00,,,0.07,,2013-02-08 15:41:00,
2013-02-08 07:51:00,34.0,33.0,29.89,SE,144,1.0,3.0,96,0.00,,,0.07,,2013-02-08 15:51:00,
2013-02-08 08:01:00,35.0,34.0,29.89,SE,136,2.0,3.0,96,0.00,,,0.07,,2013-02-08 16:01:00,
2013-02-08 08:11:00,35.0,34.0,29.89,SE,136,2.0,3.0,96,0.00,,,0.07,,2013-02-08 16:11:00,
2013-02-08 08:21:00,35.0,33.0,29.89,SE,128,2.0,3.0,94,0.00,,,0.07,,2013-02-08 16:21:00,
2013-02-08 08:32:00,35.0,34.0,29.90,North,360,0.0,3.0,95,0.00,,,0.01,,2013-02-08 16:32:00,
2013-02-08 08:41:00,35.0,34.0,29.90,North,360,0.0,3.0,95,0.00,,,0.01,,2013-02-08 16:41:00,
2013-02-08 08:51:00,36.0,35.0,29.91,NE,37,0.0,5.0,96,0.00,,,0.01,,2013-02-08 16:51:00,
2013-02-08 09:03:00,36.0,35.0,29.91,NE,37,0.0,5.0,96,0.00,,,0.01,,2013-02-08 17:03:00,
2013-02-08 09:11:00,36.0,35.0,29.91,NE,37,0.0,5.0,96,0.00,,,0.01,,2013-02-08 17:11:00,
2013-02-08 09:22:00,38.0,37.0,29.91,North,5,0.0,2.0,95,0.00,,,0.01,,2013-02-08 17:22:00,
2013-02-08 09:32:00,39.0,35.0,29.91,NNE,16,1.0,4.0,87,0.00,,,0.00,,2013-02-08 17:32:00,
2013-02-08 09:42:00,39.0,35.0,29.91,NNE,16,1.0,4.0,87,0.00,,,0.00,,2013-02-08 17:42:00,
2013-02-08 09:52:00,40.0,38.0,29.92,NW,322,1.0,3.0,92,0.00,,,0.00,,2013-02-08 17:52:00,
2013-02-08 10:01:00,44.0,40.0,29.92,NNW,329,2.0,3.0,87,0.00,,,0.00,,2013-02-08 18:01:00,
2013-02-08 10:11:00,44.0,40.0,29.92,NNW,329,2.0,3.0,87,0.00,,,0.00,,2013-02-08 18:11:00,
2013-02-08 10:23:00,46.0,40.0,29.92,North,355,1.0,5.0,79,0.00,,,0.00,,2013-02-08 18:23:00,
2013-02-08 10:33:00,46.0,39.0,29.92,NW,317,2.0,7.0,77,0.00,,,0.00,,2013-02-08 18:33:00,
2013-02-08 10:52:00,47.0,39.0,29.93,West,273,3.0,6.0,75,0.00,,,0.00,,2013-02-08 18:52:00,
2013-02-08 11:01:00,46.0,34.0,29.93,North,355,7.0,11.0,63,0.00,,,0.00,,2013-02-08 19:01:00,
2013-02-08 11:11:00,46.0,34.0,29.93,North,355,7.0,11.0,63,0.00,,,0.00,,2013-02-08 19:11:00,
2013-02-08 11:22:00,49.0,35.0,29.92,North,5,4.0,11.0,59,0.00,,,0.00,,2013-02-08 19:22:00,
2013-02-08 11:32:00,49.0,33.0,29.92,NW,307,1.0,6.0,54,0.00,,,0.00,,2013-02-08 19:32:00,
2013-02-08 11:41:00,49.0,33.0,29.92,NW,307,1.0,6.0,54,0.00,,,0.00,,2013-02-08 19:41:00,
2013-02-08 11:52:00,50.0,36.0,29.91,West,267,2.0,-999.0,58,0.12,,,0.54,,2013-02-08 19:52:00,
2013-02-08 12:01:00,52.0,36.0,29.91,NW,320,4.0,7.0,54,0.00,,,0.00,,2013-02-08 20:01:00,
2013-02-08 12:11:00,52.0,36.0,29.91,NW,320,4.0,7.0,54,0.00,,,0.00,,2013-02-08 20:11:00,
2013-02-08 12:21:00,52.0,37.0,29.91,West,271,3.0,8.0,56,0.00,,,0.00,,2013-02-08 20:21:00,
2013-02-08 12:31:00,53.0,35.0,29.90,WNW,282,3.0,6.0,51,0.00,,,0.00,,2013-02-08 20:31:00,
2013-02-08 12:41:00,53.0,35.0,29.90,WNW,282,3.0,6.0,51,0.00,,,0.00,,2013-02-08 20:41:00,
2013-02-08 12:52:00,54.0,39.0,29.90,NNW,336,3.0,7.0,56,0.00,,,0.00,,2013-02-08 20:52:00,
2013-02-08 13:01:00,54.0,39.0,29.90,NNW,336,3.0,7.0,56,0.00,,,0.00,,2013-02-08 21:01:00,
2013-02-08 13:11:00,54.0,39.0,29.90,NNW,336,3.0,7.0,56,0.00,,,0.00,,2013-02-08 21:11:00,
2013-02-08 13:21:00,55.0,36.0,29.89,NNW,328,2.0,8.0,49,0.00,,,0.00,,2013-02-08 21:21:00,
2013-02-08 13:33:00,55.0,37.0,29.89,SW,223,4.0,10.0,51,0.00,,,0.00,,2013-02-08 21:33:00,
2013-02-08 13:42:00,55.0,37.0,29.89,SW,223,4.0,10.0,51,0.00,,,0.00,,2013-02-08 21:42:00,
2013-02-08 13:52:00,55.0,37.0,29.88,NNW,342,3.0,9.0,51,0.00,,,0.00,,2013-02-08 21:52:00,
2013-02-08 14:01:00,56.0,36.0,29.88,WNW,296,3.0,7.0,47,0.00,,,0.00,,2013-02-08 22:01:00,
2013-02-08 14:11:00,56.0,36.0,29.88,WNW,296,3.0,7.0,47,0.00,,,0.00,,2013-02-08 22:11:00,
2013-02-08 14:21:00,56.0,36.0,29.87,NW,313,3.0,9.0,47,0.00,,,0.00,,2013-02-08 22:21:00,
2013-02-08 14:31:00,57.0,35.0,29.87,West,279,1.0,7.0,44,0.00,,,0.00,,2013-02-08 22:31:00,
2013-02-08 14:41:00,57.0,35.0,29.87,West,279,1.0,7.0,44,0.00,,,0.00,,2013-02-08 22:41:00,
2013-02-08 14:52:00,57.0,35.0,29.86,West,265,2.0,7.0,44,0.00,,,0.00,,2013-02-08 22:52:00,
2013-02-08 15:01:00,57.0,34.0,29.86,NW,310,3.0,7.0,42,0.00,,,0.00,,2013-02-08 23:01:00,
2013-02-08 15:11:00,57.0,34.0,29.86,NW,310,3.0,7.0,42,0.00,,,0.00,,2013-02-08 23:11:00,
2013-02-08 15:21:00,57.0,34.0,29.86,NW,310,3.0,7.0,42,0.00,,,0.00,,2013-02-08 23:21:00,
2013-02-08 15:31:00,57.0,32.0,29.86,NW,316,2.0,6.0,38,0.00,,,0.00,,2013-02-08 23:31:00,
2013-02-08 15:41:00,57.0,32.0,29.86,NW,316,2.0,6.0,38,0.00,,,0.00,,2013-02-08 23:41:00,
2013-02-08 15:52:00,57.0,32.0,29.86,NW,316,2.0,6.0,38,0.00,,,0.00,,2013-02-08 23:52:00,
2013-02-08 16:01:00,56.0,26.0,29.86,NE,46,0.0,7.0,31,0.00,,,0.00,,2013-02-09 00:01:00,
2013-02-08 16:11:00,56.0,26.0,29.86,NE,46,0.0,7.0,31,0.00,,,0.00,,2013-02-09 00:11:00,
2013-02-08 16:21:00,55.0,29.0,29.86,North,355,3.0,8.0,36,0.00,,,0.00,,2013-02-09 00:21:00,
2013-02-08 16:31:00,54.0,33.0,29.86,NW,317,3.0,9.0,45,0.00,,,0.00,,2013-02-09 00:31:00,
2013-02-08 16:41:00,54.0,33.0,29.86,NW,317,3.0,9.0,45,0.00,,,0.00,,2013-02-09 00:41:00,
2013-02-08 16:52:00,54.0,33.0,29.86,NW,317,3.0,9.0,45,0.00,,,0.00,,2013-02-09 00:52:00,
2013-02-08 17:01:00,52.0,35.0,29.85,NW,315,1.0,6.0,52,0.00,,,0.00,,2013-02-09 01:01:00,
2013-02-08 17:11:00,52.0,35.0,29.85,NW,315,1.0,6.0,52,0.00,,,0.00,,2013-02-09 01:11:00,
2013-02-08 17:21:00,51.0,34.0,29.86,NW,309,3.0,12.0,53,0.00,,,0.00,,2013-02-09 01:21:00,
2013-02-08 17:31:00,51.0,35.0,29.86,NW,311,2.0,6.0,55,0.00,,,0.00,,2013-02-09 01:31:00,
2013-02-08 17:41:00,51.0,35.0,29.86,NW,311,2.0,6.0,55,0.00,,,0.00,,2013-02-09 01:41:00,
2013-02-08 17:52:00,49.0,35.0,29.86,West,268,1.0,7.0,59,0.00,,,0.00,,2013-02-09 01:52:00,
2013-02-08 18:01:00,48.0,35.0,29.87,NW,308,2.0,7.0,61,0.00,,,0.00,,2013-02-09 02:01:00,
2013-02-08 18:11:00,48.0,35.0,29.87,NW,308,2.0,7.0,61,0.00,,,0.00,,2013-02-09 02:11:00,
2013-02-08 18:21:00,47.0,35.0,29.87,NW,304,2.0,5.0,63,0.00,,,0.00,,2013-02-09 02:21:00,
2013-02-08 18:31:00,46.0,35.0,29.88,WNW,294,1.0,7.0,65,0.00,,,0.00,,2013-02-09 02:31:00,
2013-02-08 18:41:00,46.0,35.0,29.88,WNW,294,1.0,7.0,65,0.00,,,0.00,,2013-02-09 02:41:00,
2013-02-08 18:52:00,46.0,35.0,29.88,NNW,331,1.0,4.0,65,0.00,,,0.00,,2013-02-09 02:52:00,
2013-02-08 19:01:00,45.0,35.0,29.89,NNW,333,0.0,3.0,69,0.00,,,0.00,,2013-02-09 03:01:00,
2013-02-08 19:11:00,45.0,35.0,29.89,NNW,333,0.0,3.0,69,0.00,,,0.00,,2013-02-09 03:11:00,
2013-02-08 19:21:00,42.0,34.0,29.89,WSW,256,0.0,2.0,74,0.00,,,0.00,,2013-02-09 03:21:00,
2013-02-08 19:31:00,42.0,35.0,29.90,SE,141,1.0,3.0,76,0.00,,,0.00,,2013-02-09 03:31:00,
2013-02-08 19:41:00,42.0,35.0,29.90,SE,141,1.0,3.0,76,0.00,,,0.00,,2013-02-09 03:41:00,
2013-02-08 19:52:00,42.0,35.0,29.91,NNW,329,1.0,4.0,75,0.00,,,0.00,,2013-02-09 03:52:00,
2013-02-08 20:02:00,42.0,34.0,29.91,SE,141,1.0,4.0,74,0.00,,,0.00,,2013-02-09 04:02:00,
2013-02-08 20:11:00,42.0,34.0,29.91,SE,141,1.0,4.0,74,0.00,,,0.00,,2013-02-09 04:11:00,
2013-02-08 20:22:00,42.0,34.0,29.91,ESE,123,1.0,6.0,74,0.00,,,0.00,,2013-02-09 04:22:00,
2013-02-08 20:31:00,42.0,33.0,29.91,North,11,1.0,2.0,71,0.00,,,0.00,,2013-02-09 04:31:00,
2013-02-08 20:42:00,42.0,33.0,29.91,North,11,1.0,2.0,71,0.00,,,0.00,,2013-02-09 04:42:00,
2013-02-08 20:52:00,41.0,33.0,29.91,East,80,0.0,4.0,73,0.00,,,0.00,,2013-02-09 04:52:00,
2013-02-08 21:02:00,42.0,33.0,29.91,NNE,13,2.0,5.0,71,0.00,,,0.00,,2013-02-09 05:02:00,
2013-02-08 21:11:00,42.0,33.0,29.91,NNE,13,2.0,5.0,71,0.00,,,0.00,,2013-02-09 05:11:00,
2013-02-08 21:22:00,42.0,31.0,29.91,SW,215,1.0,4.0,66,0.00,,,0.00,,2013-02-09 05:22:00,
2013-02-08 21:31:00,43.0,30.0,29.91,ESE,116,1.0,7.0,59,0.00,,,0.00,,2013-02-09 05:31:00,
2013-02-08 21:41:00,43.0,30.0,29.91,ESE,116,1.0,7.0,59,0.00,,,0.00,,2013-02-09 05:41:00,
2013-02-08 21:52:00,43.0,26.0,29.91,North,355,2.0,6.0,50,0.00,,,0.00,,2013-02-09 05:52:00,
2013-02-08 22:01:00,44.0,27.0,29.91,NNE,19,3.0,5.0,50,0.00,,,0.00,,2013-02-09 06:01:00,
2013-02-08 22:11:00,44.0,27.0,29.91,NNE,19,3.0,5.0,50,0.00,,,0.00,,2013-02-09 06:11:00,
2013-02-08 22:21:00,45.0,26.0,29.91,North,350,4.0,9.0,47,0.00,,,0.00,,2013-02-09 06:21:00,
2013-02-08 22:31:00,45.0,24.0,29.91,North,355,6.0,12.0,43,0.00,,,0.00,,2013-02-09 06:31:00,
2013-02-08 22:41:00,45.0,24.0,29.91,North,355,6.0,12.0,43,0.00,,,0.00,,2013-02-09 06:41:00,
2013-02-08 22:52:00,46.0,24.0,29.91,North,360,5.0,10.0,42,0.00,,,0.00,,2013-02-09 06:52:00,
2013-02-08 23:01:00,43.0,26.0,29.91,SW,229,3.0,6.0,51,0.00,,,0.00,,2013-02-09 07:01:00,
2013-02-08 23:11:00,43.0,26.0,29.91,SW,229,3.0,6.0,51,0.00,,,0.00,,2013-02-09 07:11:00,
2013-02-08 23:21:00,42.0,29.0,29.91,SSW,197,1.0,4.0,60,0.00,,,0.00,,2013-02-09 07:21:00,
2013-02-08 23:31:00,40.0,29.0,29.91,SE,143,2.0,4.0,65,0.00,,,0.00,,2013-02-09 07:31:00,
2013-02-08 23:42:00,40.0,29.0,29.91,SE,143,2.0,4.0,65,0.00,,,0.00,,2013-02-09 07:42:00,
2013-02-08 23:52:00,39.0,28.0,29.92,SE,126,1.0,4.0,65,0.00,,,0.00,,2013-02-09 07:52:00,